createdAt,value
2022-08-14T00:02:38.947Z,101097.22
2022-08-14T00:07:44.146Z,101097.34
2022-08-14T00:12:57.043Z,101101.91
2022-08-14T00:18:01.297Z,101094.91
2022-08-14T00:23:16.545Z,101095.91
2022-08-14T00:28:22.801Z,101089.59
2022-08-14T00:33:50.522Z,101088.06
2022-08-14T00:38:50.296Z,101097.41
2022-08-14T00:43:55.603Z,101092.72
2022-08-14T00:49:04.137Z,101092.56
2022-08-14T00:54:17.075Z,101092.09
2022-08-14T00:59:28.756Z,101092.09
2022-08-14T01:04:38.431Z,101091.66
2022-08-14T01:09:58.874Z,101083.13
2022-08-14T01:15:04.401Z,101089.19
2022-08-14T01:20:27.809Z,101078.97
2022-08-14T01:25:35.207Z,101073.22
2022-08-14T01:30:39.936Z,101076.75
2022-08-14T01:36:05.143Z,101070.25
2022-08-14T01:41:11.854Z,101059.66
2022-08-14T01:46:24.378Z,101057.78
2022-08-14T01:51:29.459Z,101059.75
2022-08-14T01:56:37.267Z,101046.69
2022-08-14T02:01:51.312Z,101052.84
2022-08-14T02:07:02.996Z,101049.63
2022-08-14T02:12:11.373Z,101050.41
2022-08-14T02:17:23.579Z,101053.78
2022-08-14T02:22:32.546Z,101059.59
2022-08-14T02:28:22.589Z,101062.97
2022-08-14T02:33:02.411Z,101060.97
2022-08-14T02:38:06.580Z,101061.84
2022-08-14T02:43:17.333Z,101053.91
2022-08-14T02:49:04.654Z,101061.06
2022-08-14T02:53:50.205Z,101065.81
2022-08-14T02:59:00.292Z,101068.63
2022-08-14T03:04:04.634Z,101065.34
2022-08-14T03:09:08.367Z,101076.25
2022-08-14T03:14:15.490Z,101071.38
2022-08-14T03:19:21.656Z,101087.09
2022-08-14T03:24:25.323Z,101083.25
2022-08-14T03:29:30.955Z,101080.72
2022-08-14T03:34:47.803Z,101094.53
2022-08-14T03:39:53.192Z,101087.94
2022-08-14T03:45:19.769Z,101093.41
2022-08-14T03:50:27.901Z,101092.25
2022-08-14T03:55:34.871Z,101093.78
2022-08-14T04:00:44.605Z,101099.13
2022-08-14T04:05:49.358Z,101106.91
2022-08-14T04:10:53.044Z,101109.66
2022-08-14T04:16:02.254Z,101106.84
2022-08-14T04:21:09.133Z,101105.50
2022-08-14T04:26:27.430Z,101114.13
2022-08-14T04:33:00.365Z,101113.66
2022-08-14T04:37:07.478Z,101120.03
2022-08-14T04:42:14.160Z,101112.03
2022-08-14T04:47:19.696Z,101117.88
2022-08-14T04:52:24.720Z,101125.34
2022-08-14T04:57:28.673Z,101128.31
2022-08-14T05:02:34.632Z,101134.44
2022-08-14T05:07:54.325Z,101133.03
2022-08-14T05:13:24.790Z,101140.34
2022-08-14T05:19:16.926Z,101141.78
2022-08-14T05:23:56.173Z,101137.06
2022-08-14T05:29:00.679Z,101138.84
2022-08-14T05:34:06.020Z,101143.38
2022-08-14T05:39:09.985Z,101145.28
2022-08-14T05:44:14.476Z,101144.84
2022-08-14T05:49:19.738Z,101144.63
2022-08-14T05:54:27.124Z,101153.63
2022-08-14T05:59:38.825Z,101142.72
2022-08-14T06:04:45.210Z,101149.44
2022-08-14T06:09:52.325Z,101154.34
2022-08-14T06:14:56.276Z,101155.16
2022-08-14T06:20:01.558Z,101150.78
2022-08-14T06:25:10.044Z,101142.00
2022-08-14T06:30:21.964Z,101153.50
2022-08-14T06:35:28.822Z,101152.97
2022-08-14T06:40:34.561Z,101149.31
2022-08-14T06:45:42.091Z,101157.78
2022-08-14T06:50:49.123Z,101153.91
2022-08-14T06:55:58.372Z,101161.97
2022-08-14T07:01:04.664Z,101165.91
2022-08-14T07:06:21.365Z,101167.91
2022-08-14T07:11:37.544Z,101169.53
2022-08-14T07:16:41.184Z,101175.56
2022-08-14T07:21:47.365Z,101174.50
2022-08-14T07:26:51.133Z,101169.97
2022-08-14T07:31:54.924Z,101182.47
2022-08-14T07:37:01.194Z,101184.34
2022-08-14T07:42:05.427Z,101179.41
2022-08-14T07:47:09.999Z,101181.06
2022-08-14T07:52:15.322Z,101172.34
2022-08-14T07:57:25.940Z,101180.47
2022-08-14T08:02:32.477Z,101170.56
2022-08-14T08:07:39.556Z,101168.31
2022-08-14T08:12:44.041Z,101167.88
2022-08-14T08:17:53.746Z,101170.94
2022-08-14T08:23:07.726Z,101166.41
2022-08-14T08:28:25.206Z,101161.44
2022-08-14T08:33:31.801Z,101157.16
2022-08-14T08:39:17.446Z,101159.44
2022-08-14T08:44:05.864Z,101158.06
2022-08-14T08:49:21.203Z,101155.97
2022-08-14T08:54:31.063Z,101163.69
2022-08-14T08:59:35.299Z,101162.63
2022-08-14T09:04:45.253Z,101158.59
2022-08-14T09:09:59.838Z,101154.72
2022-08-14T09:15:08.942Z,101161.34
2022-08-14T09:20:26.015Z,101155.53
2022-08-14T09:26:00.703Z,101147.94
2022-08-14T09:31:00.654Z,101148.66
2022-08-14T09:36:43.642Z,101153.09
2022-08-14T09:42:21.370Z,101157.72
2022-08-14T09:47:44.359Z,101160.88
2022-08-14T09:52:54.931Z,101153.53
2022-08-14T09:58:22.561Z,101154.16
2022-08-14T10:03:28.788Z,101152.00
2022-08-14T10:08:44.229Z,101149.63
2022-08-14T10:13:53.269Z,101157.78
2022-08-14T10:19:07.185Z,101158.53
2022-08-14T10:24:12.176Z,101155.16
2022-08-14T10:29:32.979Z,101154.38
2022-08-14T10:34:40.967Z,101155.28
2022-08-14T10:40:01.367Z,101165.00
2022-08-14T10:45:19.567Z,101162.38
2022-08-14T10:50:35.410Z,101155.28
2022-08-14T10:55:45.245Z,101143.13
2022-08-14T11:00:58.848Z,101154.38
2022-08-14T11:06:13.694Z,101150.00
2022-08-14T11:11:18.587Z,101154.00
2022-08-14T11:16:24.659Z,101146.41
2022-08-14T11:21:34.216Z,101159.44
2022-08-14T11:26:38.273Z,101156.34
2022-08-14T11:31:44.349Z,101155.78
2022-08-14T11:37:09.297Z,101151.81
2022-08-14T11:42:58.824Z,101149.03
2022-08-14T11:48:13.003Z,101153.97
2022-08-14T11:53:21.224Z,101147.59
2022-08-14T11:58:27.972Z,101144.38
2022-08-14T12:03:51.217Z,101146.69
2022-08-14T12:08:59.910Z,101143.59
2022-08-14T12:14:13.396Z,101142.75
2022-08-14T12:19:50.937Z,101151.34
2022-08-14T12:24:57.327Z,101151.13
2022-08-14T12:30:01.600Z,101158.34
2022-08-14T12:35:08.464Z,101166.72
2022-08-14T12:40:19.627Z,101167.47
2022-08-14T12:45:31.931Z,101172.09
2022-08-14T12:50:44.043Z,101161.84
2022-08-14T12:56:22.694Z,101157.97
2022-08-14T13:01:27.042Z,101169.91
2022-08-14T13:06:34.063Z,101173.78
2022-08-14T13:11:44.808Z,101175.69
2022-08-14T13:16:50.530Z,101174.09
2022-08-14T13:22:05.068Z,101175.47
2022-08-14T13:27:11.734Z,101186.72
2022-08-14T13:32:16.261Z,101192.38
2022-08-14T13:37:22.847Z,101195.81
2022-08-14T13:42:30.871Z,101198.31
2022-08-14T13:47:35.280Z,101203.66
2022-08-14T13:52:53.465Z,101217.56
2022-08-14T13:58:04.067Z,101209.16
2022-08-14T14:03:09.721Z,101216.31
2022-08-14T14:08:18.894Z,101214.91
2022-08-14T14:13:44.970Z,101214.56
2022-08-14T14:18:51.966Z,101211.28
2022-08-14T14:23:58.047Z,101206.50
2022-08-14T14:29:03.665Z,101209.06
2022-08-14T14:34:29.462Z,101217.41
2022-08-14T14:39:37.736Z,101214.13
2022-08-14T14:45:05.126Z,101230.34
2022-08-14T14:50:10.028Z,101228.59
2022-08-14T14:55:17.067Z,101232.63
2022-08-14T15:00:21.225Z,101242.44
2022-08-14T15:05:28.230Z,101242.16
2022-08-14T15:10:37.845Z,101244.09
2022-08-14T15:15:43.803Z,101254.19
2022-08-14T15:20:47.725Z,101256.81
2022-08-14T15:25:54.031Z,101255.78
2022-08-14T15:30:59.171Z,101255.53
2022-08-14T15:36:02.957Z,101258.94
2022-08-14T15:41:10.397Z,101249.69
2022-08-14T15:46:41.113Z,101250.81
2022-08-14T15:51:42.247Z,101244.41
2022-08-14T15:56:57.340Z,101239.41
2022-08-14T16:02:02.137Z,101244.44
2022-08-14T16:07:06.651Z,101234.94
2022-08-14T16:12:14.782Z,101237.03
2022-08-14T16:17:19.549Z,101226.22
2022-08-14T16:22:58.322Z,101223.69
2022-08-14T16:27:49.517Z,101224.78
2022-08-14T16:32:57.010Z,101233.19
2022-08-14T16:38:19.914Z,101223.59
2022-08-14T16:43:27.216Z,101219.84
2022-08-14T16:48:55.354Z,101221.19
2022-08-14T16:53:56.864Z,101227.38
2022-08-14T16:59:12.147Z,101225.16
2022-08-14T17:04:24.706Z,101229.72
2022-08-14T17:09:37.017Z,101228.97
2022-08-14T17:14:55.814Z,101221.75
2022-08-14T17:20:33.896Z,101218.41
2022-08-14T17:25:30.071Z,101220.38
2022-08-14T17:30:49.207Z,101217.94
2022-08-14T17:36:10.941Z,101220.59
2022-08-14T17:41:36.229Z,101201.13
2022-08-14T17:46:44.405Z,101206.28
2022-08-14T17:52:02.308Z,101208.53
2022-08-14T17:57:13.109Z,101208.06
2022-08-14T18:02:21.250Z,101205.50
2022-08-14T18:07:59.588Z,101197.53
2022-08-14T18:12:48.882Z,101195.69
2022-08-14T18:17:54.700Z,101198.88
2022-08-14T18:23:00.305Z,101193.66
2022-08-14T18:28:16.071Z,101184.50
2022-08-14T18:33:23.836Z,101177.09
2022-08-14T18:38:55.243Z,101182.91
2022-08-14T18:43:59.054Z,101181.25
2022-08-14T18:49:17.365Z,101177.81
2022-08-14T18:54:33.203Z,101166.84
2022-08-14T18:59:40.335Z,101172.34
2022-08-14T19:04:48.616Z,101167.97
2022-08-14T19:09:58.051Z,101162.59
2022-08-14T19:15:09.291Z,101167.53
2022-08-14T19:20:15.478Z,101165.13
2022-08-14T19:25:53.679Z,101157.84
2022-08-14T19:31:37.055Z,101153.75
2022-08-14T19:37:05.219Z,101144.00
2022-08-14T19:42:12.858Z,101130.88
2022-08-14T19:47:17.029Z,101128.19
2022-08-14T19:52:24.116Z,101117.84
2022-08-14T19:57:29.544Z,101111.97
2022-08-14T20:02:37.374Z,101109.34
2022-08-14T20:08:00.701Z,101102.59
2022-08-14T20:13:09.030Z,101102.72
2022-08-14T20:18:22.164Z,101099.41
2022-08-14T20:23:38.961Z,101087.53
2022-08-14T20:28:42.941Z,101081.38
2022-08-14T20:34:06.249Z,101075.41
2022-08-14T20:39:15.435Z,101067.66
2022-08-14T20:44:28.922Z,101068.50
2022-08-14T20:49:32.636Z,101059.72
2022-08-14T20:54:50.351Z,101064.97
2022-08-14T20:59:56.781Z,101046.38
2022-08-14T21:05:17.081Z,101038.47
2022-08-14T21:10:33.808Z,101032.22
2022-08-14T21:15:40.248Z,101026.97
2022-08-14T21:20:46.246Z,101021.88
2022-08-14T21:25:50.054Z,101018.31
2022-08-14T21:30:52.936Z,101005.63
2022-08-14T21:36:07.525Z,100998.31
2022-08-14T21:41:43.468Z,100993.38
2022-08-14T21:46:42.147Z,100987.09
2022-08-14T21:51:53.610Z,100986.47
2022-08-14T21:56:59.321Z,100978.50
2022-08-14T22:02:07.199Z,100964.38
2022-08-14T22:07:17.337Z,100963.19
2022-08-14T22:12:45.437Z,100952.69
2022-08-14T22:17:52.388Z,100950.72
2022-08-14T22:23:03.063Z,100943.31
2022-08-14T22:28:09.926Z,100930.75
2022-08-14T22:33:14.188Z,100918.94
2022-08-14T22:38:35.961Z,100915.75
2022-08-14T22:43:40.905Z,100904.72
2022-08-14T22:48:45.447Z,100902.69
2022-08-14T22:53:54.004Z,100894.63
2022-08-14T22:58:58.411Z,100889.50
2022-08-14T23:04:02.073Z,100875.81
2022-08-14T23:09:35.574Z,100882.00
2022-08-14T23:14:30.855Z,100873.88
2022-08-14T23:19:35.043Z,100867.13
2022-08-14T23:24:42.692Z,100862.09
2022-08-14T23:29:46.475Z,100859.03
2022-08-14T23:34:52.823Z,100855.53
2022-08-14T23:39:59.673Z,100851.75
2022-08-14T23:45:03.729Z,100838.06
2022-08-14T23:50:38.338Z,100837.91
2022-08-14T23:55:37.239Z,100835.22
